Nearby METAR Reports

 

KSJC - San Jose, California, USA
Distance from station: NE 14km
Actualización: 29/09/2020 17:53
Cubierto
Cubierto
 Viento del calm
Viento: Calma
Temperatura: 20°C
Rocío: 13°C
Humedad: 64%
Barómetro: 1016.6 hPa
Clouds: Cubierto
Visibility: 16 km
Cloud details: Few Clouds 549 m
Muy nuboso 1189 m
Cubierto 1981 m
2020/09/29 15:53 KSJC 291553Z 00000KT 10SM FEW018 BKN039 OVC065 20/13 A3002 RMK AO2 SLP166 FU FEW018 FU BKN039 FU OVC065 T02000133
KNUQ - Moffett Nas/Mtn, California, USA
Distance from station: N 14km
Actualización: 29/09/2020 15:55
NOT Current
Muy nuboso
Muy nuboso
 Viento del calm
Viento: Calma
Temperatura: 17°C
Rocío: 15°C
Humedad: 88%
Barómetro: 1015.2 hPa
Clouds: Muy nuboso
Visibility: 16 km
Cloud details: Parcialmente nuboso 457 m
Muy nuboso 610 m
Muy nuboso 762 m
2020/09/29 13:55 KNUQ 291355Z AUTO 00000KT 10SM SCT015 BKN020 BKN025 17/15 A2998 RMK AO2
 
KPAO - Palo Alto, California, USA
Distance from station: NNO 23km
Actualización: 29/09/2020 17:47
Smoke, Few clouds
Smoke, Few clouds
 Viento del NO
Viento: NO 7 km/h
Temperatura: 18°C
Rocío: 15°C
Humedad: 83%
Barómetro: 1016.9 hPa
Resumen: Smoke
Clouds: Few Clouds
Visibility: 16 km
Cloud details: Few Clouds 457 m
2020/09/29 15:47 KPAO 291547Z 31004KT 10SM FU FEW015 18/15 A3003
KRHV - San Jose/Reid, California, USA
Distance from station: ENE 19km
Actualización: 29/09/2020 17:47
Despejado
Despejado
 Viento del calm
Viento: Calma
Temperatura: 19°C
Rocío: 12°C
Humedad: 64%
Barómetro: 1016.9 hPa
Clouds: Despejado
Visibility: 16 km
2020/09/29 15:47 KRHV 291547Z 00000KT 10SM SKC 19/12 A3003
 
KOAK - Oakland, California, USA
Distance from station: NNO 50km
Actualización: 29/09/2020 17:53
Parcialmente nuboso
Parcialmente nuboso
 Viento del NO
Viento: NO 13 km/h
Temperatura: 18°C
Rocío: 14°C
Humedad: 78%
Barómetro: 1016.9 hPa
Clouds: Parcialmente nuboso
Visibility: 16 km
Cloud details: Few Clouds 152 m
Few Clouds 305 m
Parcialmente nuboso 4572 m
2020/09/29 15:53 KOAK 291553Z 31007KT 10SM FEW005 FEW010 SCT150 18/14 A3003 RMK AO2 SLP169 FU SCT150 T01780144
KSQL - San Carlos Airpo, California, USA
Distance from station: NO 34km
Actualización: 29/09/2020 17:47
Few Clouds
Few Clouds
 Viento del varies
Viento: varies 6 km/h
Temperatura: 18°C
Rocío: 14°C
Humedad: 78%
Barómetro: 1017.3 hPa
Clouds: Few Clouds
Visibility: 16 km
Cloud details: Few Clouds 6096 m
2020/09/29 15:47 KSQL 291547Z VRB03KT 10SM FEW200 18/14 A3004
 
KSFO - San Francisco, California, USA
Distance from station: NO 49km
Actualización: 29/09/2020 17:56
Parcialmente nuboso
Parcialmente nuboso
 Viento del ONO
Viento: ONO 15 km/h
Temperatura: 17°C
Rocío: 13°C
Humedad: 77%
Barómetro: 1016.9 hPa
Clouds: Parcialmente nuboso
Visibility: 16 km
Cloud details: Few Clouds 122 m
Parcialmente nuboso 6096 m
2020/09/29 15:56 KSFO 291556Z 30008KT 10SM FEW004 SCT200 17/13 A3003 RMK AO2 SLP168 FOG IN GAP W T01670133
KE16 - San Martin, California, USA
Distance from station: ESE 43km
Actualización: 29/09/2020 17:50
Despejado
Despejado
 Viento del calm
Viento: Calma
Temperatura: 15°C
Rocío: 12°C
Humedad: 82%
Barómetro: 1017.6 hPa
Clouds: Despejado
Visibility: 13 km
2020/09/29 15:50 KE16 291550Z AUTO 00000KT 8SM CLR 15/12 A3005 RMK AO2 PWINO PNO
 
KWVI - Watsonville, California, USA
Distance from station: SSE 44km
Actualización: 29/09/2020 17:53
Mist, Cubierto
Mist, Cubierto
 Viento del calm
Viento: Calma
Temperatura: 13°C
Rocío: 13°C
Humedad: 100%
Barómetro: 1017.6 hPa
Resumen: Mist
Clouds: Cubierto
Visibility: 4 km
Cloud details: Cubierto 61 m
2020/09/29 15:53 KWVI 291553Z AUTO 00000KT 2 1/2SM BR OVC002 13/13 A3005 RMK AO2 VIS 1 1/2V5 SLP174 T01280128
KHAF - Half Moon Bay, California, USA
Distance from station: ONO 50km
Actualización: 29/09/2020 17:55
Muy nuboso
Muy nuboso
 Viento del S
Viento: S 9 km/h
Temperatura: 14°C
Rocío: 14°C
Humedad: 100%
Barómetro: 1017.6 hPa
Clouds: Muy nuboso
Visibility: 16 km
Cloud details: Muy nuboso 122 m
2020/09/29 15:55 KHAF 291555Z AUTO 18005KT 10SM BKN004 14/14 A3005 RMK AO2
 
KHWD - Hayward, California, USA
Distance from station: N 44km
Actualización: 29/09/2020 17:54
Despejado
Despejado
 Viento del NO
Viento: NO 11 km/h
Temperatura: 18°C
Rocío: 14°C
Humedad: 78%
Barómetro: 1016.9 hPa
Clouds: Despejado
Visibility: 16 km
2020/09/29 15:54 KHWD 291554Z 31006KT 10SM CLR 18/14 A3003 RMK AO2 SLP177 T01830139
KLVK - Livermore, California, USA
Distance from station: NNE 51km
Actualización: 29/09/2020 17:53
Despejado
Despejado
 Viento del calm
Viento: Calma
Temperatura: 19°C
Rocío: 11°C
Humedad: 60%
Barómetro: 1016.3 hPa
Clouds: Despejado
Visibility: 11 km
2020/09/29 15:53 KLVK 291553Z 00000KT 7SM CLR 19/11 A3001 RMK AO2 SLP159 T01940106